Time;durP1;ratioP1;P1;durP2;ratioP2;P2;SDS_P1;SDS_P2;PMS_P1;PMS_P2;Temp;Humidity;BMP_temperature;BMP_pressure;BME280_temperature;BME280_humidity;BME280_pressure;Samples;Min_cycle;Max_cycle;Signal;HPM_P1;HPM_P2
2022/08/15 00:03:57;;;;;;;4.90;4.00;;;26.80;40.30;;;;;;20987;6514;88639;-86
2022/08/15 00:06:26;;;;;;;4.32;4.03;;;26.50;40.30;;;;;;20590;6802;281169;-86
2022/08/15 00:08:52;;;;;;;4.57;4.27;;;26.40;40.60;;;;;;20493;6861;305127;-86
2022/08/15 00:11:17;;;;;;;4.12;3.83;;;26.50;40.50;;;;;;20464;6868;338724;-86
2022/08/15 00:13:44;;;;;;;4.77;4.20;;;26.60;40.40;;;;;;20699;6854;117908;-86
2022/08/15 00:16:10;;;;;;;4.57;4.17;;;26.30;40.40;;;;;;20449;6877;280012;-86
2022/08/15 00:18:35;;;;;;;4.20;3.90;;;26.30;42.00;;;;;;20451;6877;293647;-86
2022/08/15 00:21:01;;;;;;;6.30;4.30;;;26.30;42.00;;;;;;20430;6884;278895;-86
2022/08/15 00:23:27;;;;;;;4.70;4.30;;;26.50;41.60;;;;;;20491;6858;311598;-86
2022/08/15 00:25:53;;;;;;;4.70;4.30;;;26.40;41.50;;;;;;20650;6858;118119;-86
2022/08/15 00:28:18;;;;;;;4.23;3.90;;;26.10;41.60;;;;;;20662;6865;118145;-86
2022/08/15 00:30:44;;;;;;;4.22;3.92;;;25.70;42.00;;;;;;20526;6850;281255;-87
2022/08/15 00:33:09;;;;;;;4.50;4.18;;;25.70;42.60;;;;;;20674;6865;117213;-87
2022/08/15 00:35:36;;;;;;;4.57;4.23;;;25.60;42.30;;;;;;20482;6864;312384;-87
2022/08/15 00:38:02;;;;;;;4.23;3.97;;;25.50;42.60;;;;;;20665;6868;118322;-87
2022/08/15 00:40:28;;;;;;;4.43;4.03;;;25.50;42.60;;;;;;20676;6862;117759;-87
2022/08/15 00:42:53;;;;;;;4.20;3.90;;;25.20;42.90;;;;;;20648;6878;117655;-87
2022/08/15 00:45:20;;;;;;;5.10;4.00;;;25.00;43.20;;;;;;20413;6892;293767;-87
2022/08/15 00:48:41;;;;;;;5.07;3.83;;;25.10;43.90;;;;;;20546;6892;129318;-87
2022/08/15 00:50:11;;;;;;;4.40;4.10;;;25.10;43.50;;;;;;20608;6862;118040;-89
2022/08/15 00:52:36;;;;;;;4.07;3.77;;;24.90;43.80;;;;;;20689;6861;119847;-87
2022/08/15 00:55:08;;;;;;;4.17;3.87;;;24.70;44.20;;;;;;20730;6861;117701;-87
2022/08/15 00:57:34;;;;;;;4.27;3.80;;;24.50;44.60;;;;;;20737;6862;116629;-87
2022/08/15 01:00:01;;;;;;;4.40;3.83;;;24.40;45.00;;;;;;20651;6860;117739;-87
2022/08/15 01:02:26;;;;;;;4.60;4.13;;;24.20;45.20;;;;;;20474;6860;308746;-87
2022/08/15 01:04:52;;;;;;;4.47;4.17;;;24.50;46.40;;;;;;20480;6860;291348;-87
2022/08/15 01:07:17;;;;;;;4.50;4.20;;;24.90;46.60;;;;;;20440;6875;308416;-87
2022/08/15 01:09:43;;;;;;;4.30;3.90;;;25.20;46.50;;;;;;20678;6861;119179;-87
2022/08/15 01:12:15;;;;;;;4.13;3.83;;;25.10;45.80;;;;;;20695;6859;117653;-87
2022/08/15 01:14:40;;;;;;;4.07;3.73;;;24.70;45.90;;;;;;20705;6858;117279;-87
2022/08/15 01:17:06;;;;;;;4.67;4.13;;;24.40;46.20;;;;;;20482;6859;308818;-87
2022/08/15 01:19:31;;;;;;;4.60;4.20;;;24.60;46.90;;;;;;20492;6859;294221;-87
2022/08/15 01:22:17;;;;;;;4.37;4.07;;;24.90;46.40;;;;;;20420;6866;310228;-87
2022/08/15 01:24:53;;;;;;;4.50;4.10;;;25.10;45.80;;;;;;20424;6872;309778;-87
2022/08/15 01:27:19;;;;;;;4.23;3.83;;;25.10;44.80;;;;;;20442;6873;117501;-87
2022/08/15 01:29:44;;;;;;;4.60;4.20;;;25.00;44.70;;;;;;20420;6871;310272;-87
2022/08/15 01:32:11;;;;;;;4.20;3.90;;;25.10;45.10;;;;;;20461;6870;342180;-87
2022/08/15 01:34:36;;;;;;;4.27;3.93;;;25.20;44.80;;;;;;20696;6865;120809;-87
2022/08/15 01:37:04;;;;;;;4.20;3.73;;;25.10;44.50;;;;;;20649;6880;119577;-87
2022/08/15 01:39:46;;;;;;;3.92;3.72;;;24.70;44.60;;;;;;20500;6857;304855;-87
2022/08/15 01:42:15;;;;;;;4.27;3.87;;;24.80;45.20;;;;;;20472;6865;309136;-87
2022/08/15 01:44:50;;;;;;;4.50;4.10;;;25.10;44.80;;;;;;20501;6857;279070;-87
2022/08/15 01:47:26;;;;;;;4.40;4.00;;;25.30;44.30;;;;;;20476;6865;309555;-87
2022/08/15 01:49:59;;;;;;;4.35;3.92;;;25.40;44.10;;;;;;20463;6865;339224;-87
2022/08/15 01:52:24;;;;;;;4.20;3.90;;;25.50;43.70;;;;;;20695;6857;117984;-87
2022/08/15 01:54:50;;;;;;;4.47;3.60;;;25.20;43.80;;;;;;20440;6865;331038;-86
2022/08/15 01:57:16;;;;;;;3.87;3.67;;;25.20;44.30;;;;;;20702;6857;117491;-87
2022/08/15 01:59:43;;;;;;;4.00;3.80;;;25.00;44.20;;;;;;20452;6865;308295;-87
2022/08/15 02:02:08;;;;;;;3.87;3.67;;;25.10;44.70;;;;;;20672;6855;117512;-87
2022/08/15 02:04:34;;;;;;;4.30;3.90;;;25.00;44.40;;;;;;20700;6861;117487;-87
2022/08/15 02:07:01;;;;;;;4.10;3.80;;;24.70;44.50;;;;;;20500;6855;278760;-87
2022/08/15 02:09:26;;;;;;;4.07;3.77;;;24.80;44.90;;;;;;20480;6861;308601;-87
2022/08/15 02:11:52;;;;;;;3.57;3.37;;;25.20;44.70;;;;;;20700;6855;118355;-87
2022/08/15 02:14:17;;;;;;;4.50;3.73;;;25.10;44.40;;;;;;20706;6861;117468;-87
2022/08/15 02:16:43;;;;;;;3.80;3.50;;;24.80;44.60;;;;;;20499;6855;307373;-87
2022/08/15 02:19:08;;;;;;;3.90;3.60;;;24.90;45.10;;;;;;20490;6861;309583;-87
2022/08/15 02:21:34;;;;;;;3.90;3.60;;;25.20;44.60;;;;;;20503;6855;342422;-87
2022/08/15 02:23:59;;;;;;;3.97;3.40;;;25.40;44.20;;;;;;20684;6861;120019;-87
2022/08/15 02:26:27;;;;;;;3.57;3.07;;;24.90;44.40;;;;;;20709;6859;117652;-87
2022/08/15 02:28:53;;;;;;;3.97;3.67;;;24.80;44.30;;;;;;20715;6855;118087;-87
2022/08/15 02:31:18;;;;;;;4.10;3.80;;;24.60;44.70;;;;;;20500;6856;279778;-87
2022/08/15 02:33:54;;;;;;;4.43;3.77;;;25.10;45.00;;;;;;20481;6856;308605;-87
2022/08/15 02:36:20;;;;;;;3.63;3.33;;;25.00;45.00;;;;;;20710;6856;117744;-87
2022/08/15 02:38:46;;;;;;;4.00;3.70;;;25.00;44.50;;;;;;20500;6856;313246;-87
2022/08/15 02:41:11;;;;;;;3.93;3.60;;;25.00;44.80;;;;;;20715;6856;117848;-87
2022/08/15 02:43:40;;;;;;;4.28;3.83;;;24.90;44.70;;;;;;20501;6856;281377;-87
2022/08/15 02:46:05;;;;;;;3.77;3.47;;;25.00;45.10;;;;;;20678;6857;120104;-87
2022/08/15 02:48:31;;;;;;;3.50;3.30;;;24.90;44.90;;;;;;20711;6857;117293;-87
2022/08/15 02:50:56;;;;;;;3.73;3.50;;;24.70;45.00;;;;;;20704;6857;117807;-87
2022/08/15 02:53:23;;;;;;;4.22;3.83;;;24.50;45.30;;;;;;20503;6857;300981;-86
2022/08/15 02:55:49;;;;;;;4.00;3.60;;;24.60;45.80;;;;;;20716;6857;117393;-87
2022/08/15 02:58:16;;;;;;;3.80;3.60;;;24.60;45.40;;;;;;20553;6857;279942;-87
2022/08/15 03:00:41;;;;;;;4.00;3.70;;;24.70;45.80;;;;;;20500;6857;311340;-87
2022/08/15 03:03:07;;;;;;;3.40;3.20;;;25.00;45.50;;;;;;20713;6857;120896;-87
2022/08/15 03:05:33;;;;;;;3.70;3.40;;;24.80;45.10;;;;;;20705;6857;117417;-87
2022/08/15 03:07:58;;;;;;;4.00;3.58;;;24.60;45.60;;;;;;20482;6857;308545;-86
2022/08/15 03:10:24;;;;;;;3.37;3.17;;;24.60;46.90;;;;;;20710;6857;119960;-88
2022/08/15 03:12:55;;;;;;;4.47;3.90;;;24.50;46.50;;;;;;20508;6857;279272;-87
2022/08/15 03:15:25;;;;;;;3.93;3.63;;;24.50;47.00;;;;;;20681;6857;117512;-88
2022/08/15 03:17:50;;;;;;;4.10;3.70;;;24.50;47.00;;;;;;20429;6854;309086;-89
2022/08/15 03:20:18;;;;;;;4.63;3.43;;;24.40;47.30;;;;;;20659;6874;117464;-89
2022/08/15 03:22:42;;;;;;;4.12;3.72;;;24.40;47.20;;;;;;20459;6869;308690;-88
2022/08/15 03:25:08;;;;;;;4.03;3.73;;;24.50;47.80;;;;;;20670;6874;117878;-87
2022/08/15 03:27:34;;;;;;;3.70;3.50;;;24.30;47.40;;;;;;20669;6874;117308;-87
2022/08/15 03:29:59;;;;;;;3.70;3.40;;;24.10;47.60;;;;;;20685;6863;118114;-87
2022/08/15 03:32:25;;;;;;;4.17;3.90;;;23.70;48.20;;;;;;20711;6859;118441;-87
2022/08/15 03:34:52;;;;;;;4.10;3.70;;;23.70;48.20;;;;;;20716;6859;118418;-87
2022/08/15 03:37:18;;;;;;;4.90;4.20;;;23.60;48.40;;;;;;20691;6859;121821;-87
2022/08/15 03:39:43;;;;;;;3.80;3.60;;;23.50;48.50;;;;;;20650;6866;117359;-87
2022/08/15 03:42:09;;;;;;;4.20;3.90;;;23.50;48.70;;;;;;20465;6868;298190;-86
2022/08/15 03:44:34;;;;;;;4.07;3.70;;;23.70;49.60;;;;;;20657;6865;117626;-87
2022/08/15 03:47:00;;;;;;;4.27;3.67;;;23.80;49.00;;;;;;20691;6865;117510;-87
2022/08/15 03:49:27;;;;;;;4.05;3.85;;;23.70;48.80;;;;;;20700;6858;120437;-87
2022/08/15 03:51:54;;;;;;;4.30;4.00;;;23.50;48.80;;;;;;20450;6866;281275;-87
2022/08/15 03:54:19;;;;;;;4.73;4.13;;;23.80;48.80;;;;;;20611;6891;118170;-87
2022/08/15 03:56:44;;;;;;;3.85;3.65;;;23.80;48.80;;;;;;20486;6863;310970;-87
2022/08/15 03:59:10;;;;;;;4.22;3.87;;;24.00;49.10;;;;;;20447;6876;309154;-88
2022/08/15 04:01:35;;;;;;;4.20;3.80;;;24.30;48.70;;;;;;20488;6859;309230;-87
2022/08/15 04:04:02;;;;;;;4.20;3.80;;;24.70;48.10;;;;;;20433;6859;310237;-87
2022/08/15 04:06:29;;;;;;;4.10;3.85;;;24.60;47.80;;;;;;20507;6845;338480;-87
2022/08/15 04:08:53;;;;;;;3.60;3.30;;;24.80;47.40;;;;;;20514;6845;280726;-87
2022/08/15 04:11:19;;;;;;;3.77;3.47;;;24.90;47.40;;;;;;20636;6878;119006;-87
2022/08/15 04:13:44;;;;;;;3.70;3.50;;;24.60;47.30;;;;;;20632;6867;127193;-87
2022/08/15 04:16:10;;;;;;;4.10;3.80;;;24.20;47.60;;;;;;20674;6867;118074;-87
2022/08/15 04:18:35;;;;;;;3.50;3.23;;;23.90;48.00;;;;;;20682;6869;117501;-87
2022/08/15 04:21:01;;;;;;;3.67;3.37;;;23.70;48.30;;;;;;20691;6867;117651;-87
2022/08/15 04:23:27;;;;;;;3.72;3.50;;;23.50;48.40;;;;;;20374;6890;283667;-87
2022/08/15 04:25:52;;;;;;;3.87;3.60;;;23.70;49.10;;;;;;20409;6878;310203;-87
2022/08/15 04:28:18;;;;;;;4.20;3.90;;;24.10;49.20;;;;;;20661;6863;117477;-87
2022/08/15 04:30:43;;;;;;;3.80;3.60;;;24.00;48.20;;;;;;20479;6863;309433;-87
2022/08/15 04:33:16;;;;;;;4.12;3.50;;;24.30;47.70;;;;;;20480;6863;279940;-87
2022/08/15 04:35:41;;;;;;;3.83;3.33;;;24.30;47.70;;;;;;20666;6863;119316;-87
2022/08/15 04:38:07;;;;;;;3.40;3.20;;;24.20;47.60;;;;;;20651;6859;117662;-87
2022/08/15 04:40:32;;;;;;;3.47;3.28;;;23.90;47.80;;;;;;20474;6859;280413;-88
2022/08/15 04:42:59;;;;;;;3.20;3.00;;;24.00;47.90;;;;;;20463;6856;308059;-87
2022/08/15 04:45:25;;;;;;;3.55;3.25;;;24.30;47.50;;;;;;20505;6856;310688;-87
2022/08/15 04:47:51;;;;;;;3.20;3.00;;;24.40;47.20;;;;;;20681;6854;118864;-87
2022/08/15 04:50:16;;;;;;;3.60;3.30;;;24.30;47.00;;;;;;20723;6855;120100;-87
2022/08/15 04:52:43;;;;;;;3.40;3.20;;;24.00;47.30;;;;;;20724;6855;117260;-90
2022/08/15 04:55:07;;;;;;;3.50;3.20;;;23.70;47.60;;;;;;20500;6856;313908;-88
2022/08/15 04:57:35;;;;;;;3.03;2.90;;;23.90;48.30;;;;;;20770;6856;117260;-87
2022/08/15 05:00:01;;;;;;;3.30;3.00;;;23.80;47.90;;;;;;20499;6856;281092;-88
2022/08/15 05:02:27;;;;;;;3.80;3.50;;;24.00;48.30;;;;;;20464;6871;309825;-88
2022/08/15 05:04:52;;;;;;;3.27;2.97;;;24.20;48.10;;;;;;20697;6860;117679;-88
2022/08/15 05:07:18;;;;;;;4.00;3.60;;;24.10;47.70;;;;;;20706;6860;117345;-87
2022/08/15 05:09:43;;;;;;;3.00;2.90;;;23.80;47.90;;;;;;20695;6856;117427;-88
2022/08/15 05:12:09;;;;;;;3.50;3.30;;;23.60;48.30;;;;;;20724;6856;119033;-88
2022/08/15 05:14:34;;;;;;;3.13;2.93;;;23.40;48.50;;;;;;20717;6856;117357;-87
2022/08/15 05:17:00;;;;;;;3.83;3.00;;;23.30;48.70;;;;;;20722;6856;117390;-88
2022/08/15 05:19:26;;;;;;;3.53;3.33;;;23.10;48.80;;;;;;20468;6871;309327;-88
2022/08/15 05:21:51;;;;;;;3.77;3.40;;;23.40;49.10;;;;;;20679;6856;120526;-87
2022/08/15 05:24:17;;;;;;;3.50;3.25;;;23.50;48.60;;;;;;20493;6863;279145;-86
2022/08/15 05:26:42;;;;;;;3.03;2.83;;;23.70;48.60;;;;;;20697;6863;117317;-86
2022/08/15 05:29:09;;;;;;;3.35;3.15;;;23.80;48.20;;;;;;20489;6863;278721;-89
2022/08/15 05:31:35;;;;;;;3.43;3.20;;;23.70;48.10;;;;;;20483;6863;309577;-85
2022/08/15 05:34:00;;;;;;;3.60;3.30;;;24.00;47.60;;;;;;20455;6863;308369;-86
2022/08/15 05:36:25;;;;;;;3.37;3.17;;;24.20;47.40;;;;;;20472;6863;279381;-88
2022/08/15 05:38:58;;;;;;;3.85;3.00;;;24.40;47.00;;;;;;20479;6863;311076;-87
2022/08/15 05:41:47;;;;;;;2.77;2.57;;;24.50;46.70;;;;;;20690;6859;117351;-86
2022/08/15 05:44:22;;;;;;;2.90;2.70;;;24.20;46.80;;;;;;20702;6859;118065;-87
2022/08/15 05:47:07;;;;;;;3.03;2.90;;;23.90;47.20;;;;;;20506;6859;283592;-87
2022/08/15 05:49:53;;;;;;;3.27;2.97;;;23.90;47.50;;;;;;20480;6859;308856;-87
2022/08/15 05:52:55;;;;;;;3.10;2.90;;;24.20;47.00;;;;;;20703;6856;116503;-88
2022/08/15 05:55:46;;;;;;;2.70;2.53;;;24.20;47.10;;;;;;20664;6871;117564;-88
2022/08/15 05:58:35;;;;;;;3.00;2.80;;;23.80;47.30;;;;;;20471;6869;283879;-87
2022/08/15 06:01:13;;;;;;;3.00;2.80;;;24.10;47.40;;;;;;20514;6857;282078;-87
2022/08/15 06:03:39;;;;;;;3.10;2.90;;;24.50;47.10;;;;;;20512;6854;279897;-88
2022/08/15 06:06:05;;;;;;;2.83;2.63;;;24.70;46.40;;;;;;20698;6855;123029;-87
2022/08/15 06:08:30;;;;;;;3.03;2.83;;;24.60;46.30;;;;;;20487;6866;279089;-87
2022/08/15 06:11:02;;;;;;;3.17;2.97;;;24.60;46.30;;;;;;21046;6652;71852;-87
2022/08/15 06:13:39;;;;;;;2.70;2.60;;;24.50;46.30;;;;;;20974;6729;117829;-88
2022/08/15 06:16:17;;;;;;;2.90;2.60;;;24.30;46.60;;;;;;20840;6729;117168;-87
2022/08/15 06:18:53;;;;;;;2.70;2.57;;;24.10;46.90;;;;;;20906;6739;116973;-87
2022/08/15 06:21:49;;;;;;;3.20;2.90;;;24.20;47.30;;;;;;20692;6739;293766;-87
2022/08/15 06:24:37;;;;;;;3.40;3.10;;;24.20;47.30;;;;;;20696;6739;305412;-87
2022/08/15 06:27:32;;;;;;;3.27;2.90;;;24.70;46.70;;;;;;20784;6739;118789;-87
2022/08/15 06:30:08;;;;;;;3.40;2.83;;;24.60;46.30;;;;;;20840;6754;118945;-87
2022/08/15 06:32:43;;;;;;;4.53;2.63;;;24.30;46.60;;;;;;20853;6758;116939;-87
2022/08/15 06:35:23;;;;;;;3.17;2.90;;;24.20;46.90;;;;;;20842;6759;117215;-87
2022/08/15 06:38:08;;;;;;;3.23;2.93;;;24.10;47.10;;;;;;20610;6754;277271;-87
2022/08/15 06:40:53;;;;;;;2.72;2.62;;;24.40;46.90;;;;;;20600;6773;307362;-87
2022/08/15 06:43:29;;;;;;;2.50;2.30;;;24.90;46.10;;;;;;20805;6773;117230;-87
2022/08/15 06:46:05;;;;;;;3.10;2.57;;;25.00;46.00;;;;;;20747;6768;118097;-87
2022/08/15 06:48:41;;;;;;;2.83;2.63;;;25.30;45.80;;;;;;20652;6750;305832;-87
2022/08/15 06:51:18;;;;;;;2.60;2.40;;;25.20;45.10;;;;;;20614;6765;306869;-87
2022/08/15 06:53:55;;;;;;;2.50;2.30;;;25.80;44.20;;;;;;20763;6825;120578;-87
2022/08/15 06:56:34;;;;;;;2.47;2.27;;;26.00;44.20;;;;;;20746;6765;117358;-87
2022/08/15 06:59:29;;;;;;;2.03;1.93;;;26.10;44.30;;;;;;20899;6744;117125;-87
2022/08/15 07:02:21;;;;;;;2.83;2.60;;;26.20;44.10;;;;;;20655;6744;307041;-88
2022/08/15 07:05:23;;;;;;;2.20;2.10;;;26.70;41.80;;;;;;20789;6778;117172;-87
2022/08/15 07:08:24;;;;;;;2.50;2.27;;;26.90;41.60;;;;;;20813;6762;118987;-87
2022/08/15 07:11:19;;;;;;;2.60;2.20;;;26.90;41.40;;;;;;20904;6741;117201;-87
2022/08/15 07:14:22;;;;;;;2.30;2.20;;;26.80;41.30;;;;;;20836;6755;116936;-87
2022/08/15 07:17:02;;;;;;;2.15;2.05;;;27.30;40.20;;;;;;20525;6760;322533;-87
2022/08/15 07:19:39;;;;;;;3.23;2.20;;;27.30;40.20;;;;;;20927;6735;117394;-87
2022/08/15 07:22:15;;;;;;;2.47;2.30;;;27.40;39.70;;;;;;20679;6795;276562;-87
2022/08/15 07:24:52;;;;;;;2.70;2.00;;;27.80;39.10;;;;;;20663;6748;306804;-87
2022/08/15 07:27:30;;;;;;;1.80;1.70;;;28.20;38.30;;;;;;20685;6822;117534;-87
2022/08/15 07:30:20;;;;;;;1.93;1.70;;;28.20;38.10;;;;;;20828;6759;120476;-87
2022/08/15 07:32:51;;;;;;;2.03;1.93;;;28.10;38.30;;;;;;20653;6754;307393;-87
2022/08/15 07:35:27;;;;;;;2.03;1.80;;;28.30;36.90;;;;;;20841;6757;118385;-87
2022/08/15 07:38:03;;;;;;;1.77;1.67;;;28.40;36.70;;;;;;20838;6781;119446;-88
2022/08/15 08:03:22;;;;;;;1.87;1.70;;;30.50;33.50;;;;;;21038;6502;323697;-86
2022/08/15 08:06:01;;;;;;;1.90;1.80;;;30.70;33.00;;;;;;20876;6780;117276;-87
2022/08/15 08:08:40;;;;;;;2.07;1.97;;;30.50;33.20;;;;;;20746;6847;117313;-87
2022/08/15 08:11:10;;;;;;;1.90;1.80;;;30.10;33.70;;;;;;20439;6857;308657;-87
2022/08/15 08:13:56;;;;;;;2.20;2.00;;;30.10;33.70;;;;;;20487;6852;278219;-87
2022/08/15 08:16:55;;;;;;;1.80;1.70;;;30.60;34.40;;;;;;20460;6871;309728;-87
2022/08/15 08:19:27;;;;;;;2.00;1.90;;;30.50;33.70;;;;;;20521;6851;308067;-87
2022/08/15 08:22:17;;;;;;;1.90;1.80;;;30.70;32.80;;;;;;20485;6856;308477;-88
2022/08/15 08:24:51;;;;;;;2.03;1.90;;;30.90;33.40;;;;;;20477;6856;312080;-88
2022/08/15 08:27:37;;;;;;;2.00;1.90;;;31.20;32.60;;;;;;20472;6862;278901;-88
2022/08/15 08:30:09;;;;;;;1.60;1.60;;;31.20;32.60;;;;;;20640;6873;117436;-88
2022/08/15 08:32:35;;;;;;;1.90;1.80;;;31.10;33.10;;;;;;20484;6862;306139;-87
2022/08/15 08:35:27;;;;;;;2.00;1.90;;;31.20;32.60;;;;;;20464;6873;279110;-87
2022/08/15 08:38:12;;;;;;;1.63;1.60;;;31.50;32.30;;;;;;20668;6862;117418;-88
2022/08/15 08:43:56;;;;;;;2.57;2.47;;;31.50;32.10;;;;;;20689;6862;118266;-88
2022/08/15 08:46:45;;;;;;;2.30;2.00;;;31.50;32.00;;;;;;20423;6873;280559;-88
2022/08/15 08:49:18;;;;;;;2.10;2.00;;;31.60;32.50;;;;;;20496;6851;308890;-88
2022/08/15 08:52:09;;;;;;;2.07;1.97;;;31.90;31.80;;;;;;19927;6851;119086;-88
2022/08/15 08:54:57;;;;;;;2.17;2.07;;;31.90;31.70;;;;;;20667;6862;117236;-88
2022/08/15 08:57:20;;;;;;;1.73;1.73;;;31.70;31.60;;;;;;20740;6847;117366;-88
2022/08/15 08:59:49;;;;;;;1.80;1.70;;;31.50;31.50;;;;;;20704;6858;117806;-88
2022/08/15 09:02:34;;;;;;;2.40;1.90;;;31.40;31.20;;;;;;20695;6858;117712;-88
2022/08/15 09:04:57;;;;;;;1.87;1.70;;;31.30;31.40;;;;;;20669;6858;117708;-88
2022/08/15 09:07:23;;;;;;;1.60;1.50;;;31.30;31.40;;;;;;20695;6858;120676;-88
2022/08/15 09:09:49;;;;;;;1.80;1.70;;;31.30;31.50;;;;;;20418;6878;280879;-87
2022/08/15 09:15:05;;;;;;;1.70;1.67;;;32.00;30.10;;;;;;20725;6850;117202;-88
2022/08/15 09:17:30;;;;;;;2.05;1.95;;;32.10;29.90;;;;;;20429;6872;308424;-88
2022/08/15 09:20:05;;;;;;;1.90;1.80;;;32.30;29.70;;;;;;20629;6876;118176;-88
2022/08/15 09:22:28;;;;;;;1.80;1.70;;;32.50;29.60;;;;;;20689;6857;117583;-88
2022/08/15 09:24:54;;;;;;;2.00;1.90;;;32.40;29.70;;;;;;20702;6862;118057;-88
2022/08/15 09:27:23;;;;;;;1.87;1.77;;;32.30;29.80;;;;;;20447;6876;312294;-88
2022/08/15 09:29:50;;;;;;;1.87;1.77;;;32.50;29.20;;;;;;20651;6862;117331;-88
2022/08/15 09:32:28;;;;;;;3.63;1.90;;;32.70;29.50;;;;;;20629;6877;117622;-88
2022/08/15 09:35:35;;;;;;;1.80;1.70;;;32.70;29.30;;;;;;20702;6862;117803;-88
2022/08/15 09:38:07;;;;;;;2.95;1.95;;;32.60;29.00;;;;;;20471;6862;311407;-88
2022/08/15 09:40:56;;;;;;;1.80;1.70;;;32.90;28.60;;;;;;20700;6862;117799;-88
2022/08/15 09:43:42;;;;;;;2.00;1.90;;;33.00;28.40;;;;;;20702;6862;117164;-88
2022/08/15 09:46:13;;;;;;;1.90;1.80;;;33.00;28.60;;;;;;20128;6862;309113;-88
2022/08/15 09:49:02;;;;;;;1.83;1.73;;;33.20;28.50;;;;;;20497;6858;308609;-88
2022/08/15 09:51:35;;;;;;;2.33;1.73;;;33.70;28.00;;;;;;20718;6858;118225;-87
2022/08/15 09:54:17;;;;;;;1.73;1.63;;;33.60;28.10;;;;;;20355;6858;120107;-88
2022/08/15 09:56:40;;;;;;;1.80;1.70;;;33.60;28.00;;;;;;20486;6858;308538;-90
2022/08/15 09:59:22;;;;;;;2.10;1.93;;;33.70;27.30;;;;;;20724;6858;117289;-87
2022/08/15 10:01:58;;;;;;;1.87;1.70;;;33.80;27.50;;;;;;20479;6858;299848;-88
2022/08/15 10:04:55;;;;;;;1.60;1.60;;;34.00;27.90;;;;;;20717;6858;117394;-88
2022/08/15 10:07:52;;;;;;;2.03;1.70;;;34.00;27.50;;;;;;20700;6858;117229;-87
2022/08/15 10:10:22;;;;;;;1.70;1.60;;;33.50;27.70;;;;;;20707;6854;117371;-88
2022/08/15 10:13:08;;;;;;;2.40;1.73;;;33.50;27.70;;;;;;20741;6854;117613;-87
2022/08/15 10:15:41;;;;;;;1.83;1.73;;;33.40;27.90;;;;;;20517;6858;313373;-87
2022/08/15 10:18:08;;;;;;;1.63;1.53;;;33.60;27.30;;;;;;20531;6854;291930;-87
2022/08/15 10:20:31;;;;;;;1.80;1.70;;;33.90;26.90;;;;;;20799;6854;66956;-87
2022/08/15 10:23:00;;;;;;;1.63;1.63;;;33.90;27.00;;;;;;20583;6854;308352;-87
2022/08/15 10:25:25;;;;;;;1.50;1.50;;;34.10;26.80;;;;;;20899;6638;117162;-87
2022/08/15 10:28:07;;;;;;;2.17;1.70;;;34.10;26.70;;;;;;20614;6770;325458;-87
2022/08/15 10:31:00;;;;;;;1.70;1.60;;;34.20;26.10;;;;;;20660;6770;306743;-87
2022/08/15 10:33:34;;;;;;;1.73;1.63;;;34.50;26.60;;;;;;20792;6794;116309;-87
2022/08/15 10:36:17;;;;;;;2.00;1.90;;;34.40;26.50;;;;;;20707;6807;116482;-87
2022/08/15 10:38:52;;;;;;;1.92;1.83;;;34.30;26.50;;;;;;20652;6784;338417;-87
2022/08/15 10:41:48;;;;;;;3.03;1.97;;;34.40;26.10;;;;;;20784;6774;119100;-87
2022/08/15 10:44:42;;;;;;;2.43;2.17;;;34.40;26.40;;;;;;20838;6765;117767;-87
2022/08/15 10:47:32;;;;;;;2.30;2.20;;;34.10;26.50;;;;;;20631;6786;119363;-88
2022/08/15 10:50:12;;;;;;;2.30;2.10;;;34.10;26.50;;;;;;20895;6742;117436;-88
2022/08/15 10:53:07;;;;;;;2.10;2.00;;;34.20;26.10;;;;;;20678;6757;277665;-88
2022/08/15 10:55:42;;;;;;;3.00;1.97;;;34.20;26.10;;;;;;20622;6742;313404;-88
2022/08/15 10:58:19;;;;;;;2.20;2.10;;;34.40;26.00;;;;;;20907;6761;117807;-88
2022/08/15 11:00:57;;;;;;;2.00;1.90;;;34.60;25.70;;;;;;20707;6757;279001;-88
2022/08/15 11:03:44;;;;;;;2.30;2.10;;;34.50;25.00;;;;;;20748;6743;277383;-88
2022/08/15 11:06:21;;;;;;;3.00;2.17;;;34.70;25.60;;;;;;20614;6793;117713;-88
2022/08/15 11:08:55;;;;;;;2.23;2.13;;;34.60;25.40;;;;;;20957;6743;120770;-88
2022/08/15 11:11:32;;;;;;;2.30;2.20;;;34.40;25.90;;;;;;20939;6743;117988;-88
2022/08/15 11:14:08;;;;;;;2.45;2.25;;;34.60;25.50;;;;;;20679;6757;308826;-88
2022/08/15 11:16:46;;;;;;;3.37;2.20;;;34.50;25.50;;;;;;20596;6743;308625;-88
2022/08/15 11:19:21;;;;;;;2.40;2.10;;;35.00;25.20;;;;;;20913;6757;116984;-88
2022/08/15 11:22:00;;;;;;;2.27;2.10;;;35.00;25.00;;;;;;20939;6743;141483;-88
2022/08/15 11:24:39;;;;;;;3.63;2.20;;;34.70;25.20;;;;;;20909;6757;119162;-88
2022/08/15 11:27:19;;;;;;;2.40;2.28;;;34.60;25.10;;;;;;20807;6743;118531;-88
2022/08/15 11:29:54;;;;;;;2.60;2.40;;;34.50;25.30;;;;;;20932;6743;117263;-88
2022/08/15 11:32:29;;;;;;;2.45;2.35;;;34.40;25.40;;;;;;20748;6743;309424;-87
2022/08/15 11:35:25;;;;;;;2.33;2.23;;;34.70;25.30;;;;;;20902;6757;117234;-88
2022/08/15 11:38:00;;;;;;;2.20;2.10;;;34.70;25.20;;;;;;20842;6771;117021;-88
2022/08/15 11:40:41;;;;;;;2.50;2.30;;;34.60;25.20;;;;;;20840;6764;116870;-88
2022/08/15 11:43:15;;;;;;;4.70;4.20;;;34.50;25.30;;;;;;20849;6764;117409;-88
2022/08/15 11:45:50;;;;;;;3.07;2.53;;;34.40;25.30;;;;;;20765;6764;117860;-89
2022/08/15 11:48:33;;;;;;;3.37;2.40;;;34.40;25.50;;;;;;20813;6770;117354;-88
2022/08/15 11:51:14;;;;;;;2.60;2.50;;;34.40;25.60;;;;;;20810;6772;117554;-87
2022/08/15 11:54:06;;;;;;;2.60;2.50;;;34.30;25.20;;;;;;20522;6828;300906;-87
2022/08/15 11:56:45;;;;;;;3.07;2.77;;;34.50;25.20;;;;;;20748;6757;117361;-88
2022/08/15 11:59:37;;;;;;;2.53;2.40;;;34.70;25.20;;;;;;20627;6815;279475;-88
2022/08/15 12:02:20;;;;;;;2.50;2.30;;;35.00;25.30;;;;;;20847;6759;117914;-88
2022/08/15 12:04:55;;;;;;;2.43;2.30;;;35.00;24.70;;;;;;20886;6751;119412;-90
2022/08/15 12:07:31;;;;;;;4.13;2.40;;;34.80;24.80;;;;;;20708;6751;117596;-88
2022/08/15 12:10:07;;;;;;;2.67;2.57;;;34.60;24.60;;;;;;20881;6746;117952;-88
2022/08/15 12:12:42;;;;;;;3.00;2.30;;;34.20;24.60;;;;;;20663;6746;309366;-88
2022/08/15 12:15:18;;;;;;;2.50;2.30;;;34.30;24.70;;;;;;20889;6746;116970;-87
2022/08/15 12:18:17;;;;;;;2.73;2.53;;;34.40;25.00;;;;;;20861;6751;117897;-88
2022/08/15 12:20:57;;;;;;;3.10;2.60;;;34.40;24.80;;;;;;20608;6765;306356;-88
2022/08/15 12:23:34;;;;;;;2.40;2.30;;;34.60;24.10;;;;;;20657;6765;338878;-88
2022/08/15 12:26:08;;;;;;;4.10;2.30;;;34.80;24.20;;;;;;20589;6749;338631;-88
2022/08/15 12:28:53;;;;;;;2.57;2.30;;;35.00;24.20;;;;;;20919;6741;116999;-88
2022/08/15 12:31:26;;;;;;;2.87;2.57;;;34.90;24.20;;;;;;20685;6746;306094;-88
2022/08/15 12:35:10;;;;;;;;;;;;;;;;;;;;;
2022/08/15 12:37:55;;;;;;;2.80;2.60;;;34.80;24.30;;;;;;20598;6737;335574;-96
2022/08/15 12:40:32;;;;;;;2.50;2.37;;;34.70;24.40;;;;;;20946;6731;118047;-89
2022/08/15 12:43:07;;;;;;;2.47;2.20;;;34.70;24.40;;;;;;20716;6736;305990;-87
2022/08/15 12:45:43;;;;;;;2.63;2.43;;;34.70;24.10;;;;;;20834;6746;119988;-88
2022/08/15 12:48:22;;;;;;;2.40;2.30;;;34.50;24.30;;;;;;20886;6746;116901;-88
2022/08/15 12:51:01;;;;;;;2.53;2.43;;;34.30;24.70;;;;;;20894;6745;115877;-88
2022/08/15 12:53:38;;;;;;;2.80;2.57;;;33.70;25.20;;;;;;20897;6745;117278;-88
2022/08/15 12:56:17;;;;;;;2.67;2.47;;;33.70;24.90;;;;;;20835;6745;118253;-88
2022/08/15 12:58:48;;;;;;;2.60;2.40;;;33.50;25.30;;;;;;20897;6746;118879;-88
2022/08/15 13:01:24;;;;;;;2.50;2.40;;;33.30;26.00;;;;;;20893;6749;117401;-87
2022/08/15 13:04:04;;;;;;;2.57;2.30;;;33.20;27.60;;;;;;20899;6741;117384;-88
2022/08/15 13:06:46;;;;;;;2.90;2.53;;;33.20;27.50;;;;;;20596;6737;307687;-88
2022/08/15 13:09:20;;;;;;;2.90;2.70;;;33.50;25.60;;;;;;20653;6756;276840;-88
2022/08/15 13:11:56;;;;;;;2.43;2.23;;;33.80;26.10;;;;;;20882;6746;119125;-87
2022/08/15 13:14:32;;;;;;;2.30;2.20;;;33.80;25.90;;;;;;20905;6746;117177;-88
2022/08/15 13:17:07;;;;;;;2.63;2.53;;;33.60;25.70;;;;;;20774;6746;117561;-88
2022/08/15 13:25:34;;;;;;;2.20;2.10;;;33.40;26.60;;;;;;20633;6755;337835;-89
2022/08/15 13:28:09;;;;;;;2.37;2.00;;;33.50;26.20;;;;;;20758;6781;117253;-89
2022/08/15 13:30:46;;;;;;;2.40;2.10;;;33.10;26.80;;;;;;20647;6756;296502;-87
2022/08/15 13:33:21;;;;;;;2.70;2.40;;;33.10;26.80;;;;;;20652;6756;312006;-87
2022/08/15 13:35:57;;;;;;;2.47;2.23;;;33.20;26.80;;;;;;20795;6756;118078;-87
2022/08/15 13:38:32;;;;;;;15.93;4.30;;;32.80;27.00;;;;;;20806;6774;117764;-87
2022/08/15 13:41:08;;;;;;;3.10;2.80;;;32.40;28.50;;;;;;20739;6796;117359;-86
2022/08/15 13:43:44;;;;;;;3.00;2.80;;;31.90;30.40;;;;;;20538;6781;306972;-86
2022/08/15 13:46:19;;;;;;;2.90;2.70;;;31.90;31.80;;;;;;20757;6771;119562;-86
2022/08/15 13:48:58;;;;;;;2.73;2.50;;;31.90;31.20;;;;;;20640;6760;275979;-86